Time;durP1;ratioP1;P1;durP2;ratioP2;P2;SDS_P1;SDS_P2;PMS_P1;PMS_P2;Temp;Humidity;BMP_temperature;BMP_pressure;BME280_temperature;BME280_humidity;BME280_pressure;Samples;Min_cycle;Max_cycle;Signal;HPM_P1;HPM_P2
2021/12/02 00:01:16;;;;;;;1.60;1.30;;;5.80;98.20;;;;;;4894563;29;20496;-82
2021/12/02 00:03:44;;;;;;;1.60;1.40;;;5.80;98.20;;;;;;4913049;29;20505;-83
2021/12/02 00:06:13;;;;;;;1.60;1.30;;;5.80;98.20;;;;;;4899732;29;21036;-79
2021/12/02 00:08:42;;;;;;;1.60;1.40;;;5.80;98.20;;;;;;4916442;29;20493;-84
2021/12/02 00:11:09;;;;;;;1.63;1.40;;;5.80;98.20;;;;;;4894857;29;20485;-85
2021/12/02 00:13:45;;;;;;;1.60;1.40;;;5.80;98.20;;;;;;4920723;29;20468;-79
2021/12/02 00:16:21;;;;;;;1.60;1.30;;;5.80;98.20;;;;;;4897594;29;20799;-83
2021/12/02 00:21:33;;;;;;;1.60;1.27;;;5.80;98.20;;;;;;4902315;29;20490;-85
2021/12/02 00:24:05;;;;;;;1.60;1.30;;;5.80;98.20;;;;;;4923835;29;20528;-86
2021/12/02 00:26:35;;;;;;;1.63;1.40;;;5.80;98.20;;;;;;4899595;29;20503;-81
2021/12/02 00:29:04;;;;;;;3.40;3.10;;;5.80;98.20;;;;;;4911015;29;20544;-83
2021/12/02 00:31:35;;;;;;;1.60;1.30;;;5.80;98.20;;;;;;4893419;29;20588;-85
2021/12/02 00:34:05;;;;;;;1.70;1.40;;;5.80;98.20;;;;;;4929184;29;20472;-81
2021/12/02 00:36:35;;;;;;;1.60;1.37;;;5.80;98.20;;;;;;4897702;29;20488;-88
2021/12/02 00:39:08;;;;;;;1.60;1.30;;;5.80;98.20;;;;;;4917426;29;20492;-86
2021/12/02 00:41:35;;;;;;;1.60;1.30;;;5.80;98.20;;;;;;4901740;29;20538;-86
2021/12/02 00:44:03;;;;;;;1.70;1.50;;;5.80;98.20;;;;;;4911897;29;20530;-84
2021/12/02 00:46:33;;;;;;;1.67;1.40;;;5.80;98.20;;;;;;4895376;29;20500;-87
2021/12/02 00:49:02;;;;;;;1.60;1.30;;;5.80;98.20;;;;;;4912863;29;20596;-86
2021/12/02 00:51:30;;;;;;;1.67;1.37;;;5.80;98.20;;;;;;4900075;29;20587;-84
2021/12/02 00:54:02;;;;;;;1.63;1.30;;;5.80;98.20;;;;;;4913004;29;20480;-84
2021/12/02 00:56:33;;;;;;;1.60;1.40;;;5.80;98.20;;;;;;4902299;28;20587;-85
2021/12/02 00:59:01;;;;;;;1.70;1.50;;;5.80;98.20;;;;;;4918449;29;20478;-81
2021/12/02 01:01:34;;;;;;;1.70;1.40;;;5.80;98.20;;;;;;4900076;29;20481;-81
2021/12/02 01:04:02;;;;;;;1.60;1.30;;;5.80;98.20;;;;;;4911621;29;20565;-86
2021/12/02 01:06:29;;;;;;;1.60;1.30;;;5.80;98.20;;;;;;4898753;28;20860;-81
2021/12/02 01:08:59;;;;;;;1.70;1.40;;;5.80;98.20;;;;;;4920331;29;20468;-80
2021/12/02 01:11:27;;;;;;;1.60;1.30;;;5.80;98.20;;;;;;4904263;29;20524;-85
2021/12/02 01:13:55;;;;;;;2.20;2.00;;;5.80;98.20;;;;;;4917064;29;20473;-85
2021/12/02 01:16:23;;;;;;;1.70;1.50;;;5.80;98.20;;;;;;4898673;29;20556;-88
2021/12/02 01:18:51;;;;;;;1.63;1.30;;;5.80;98.20;;;;;;4921776;29;20472;-82
2021/12/02 01:21:20;;;;;;;1.60;1.30;;;5.90;98.20;;;;;;4893374;29;21013;-86
2021/12/02 01:23:51;;;;;;;1.60;1.30;;;5.90;98.20;;;;;;4917266;29;20960;-82
2021/12/02 01:26:19;;;;;;;1.60;1.30;;;5.90;98.20;;;;;;4887886;29;20571;-84
2021/12/02 01:28:49;;;;;;;1.60;1.40;;;5.90;98.20;;;;;;4923615;29;20470;-89
2021/12/02 01:31:18;;;;;;;1.60;1.30;;;5.90;98.20;;;;;;4894645;29;20950;-81
2021/12/02 01:33:47;;;;;;;1.63;1.40;;;5.90;98.20;;;;;;4909797;29;20632;-78
2021/12/02 01:36:14;;;;;;;1.60;1.30;;;5.90;98.20;;;;;;4884103;29;20568;-79
2021/12/02 01:38:42;;;;;;;1.60;1.30;;;5.90;98.20;;;;;;4908912;29;20986;-81
2021/12/02 01:41:09;;;;;;;1.70;1.30;;;5.90;98.20;;;;;;4882240;29;20955;-80
2021/12/02 01:43:47;;;;;;;1.63;1.30;;;5.90;98.20;;;;;;4911078;29;20493;-80
2021/12/02 01:46:15;;;;;;;1.60;1.30;;;5.90;98.20;;;;;;4883597;29;21136;-80
2021/12/02 01:48:47;;;;;;;1.60;1.30;;;5.90;98.20;;;;;;4900464;29;20786;-83
2021/12/02 01:51:15;;;;;;;1.60;1.30;;;5.90;98.20;;;;;;4887769;29;21005;-80
2021/12/02 01:53:42;;;;;;;1.63;1.30;;;5.90;98.20;;;;;;4903688;29;20477;-78
2021/12/02 01:56:12;;;;;;;1.70;1.30;;;5.90;98.20;;;;;;4893687;28;20554;-79
2021/12/02 01:58:43;;;;;;;1.70;1.40;;;5.90;98.20;;;;;;4902933;29;20528;-78
2021/12/02 02:01:16;;;;;;;1.70;1.40;;;5.90;98.20;;;;;;4885996;29;20496;-80
2021/12/02 02:03:45;;;;;;;1.60;1.30;;;5.90;98.20;;;;;;4907883;29;20472;-78
2021/12/02 02:06:16;;;;;;;1.67;1.30;;;5.90;98.20;;;;;;4886660;28;20530;-80
2021/12/02 02:08:46;;;;;;;1.67;1.37;;;5.90;98.20;;;;;;4901180;29;20880;-80
2021/12/02 02:11:14;;;;;;;1.60;1.30;;;5.90;98.20;;;;;;4890487;29;20524;-80
2021/12/02 02:13:43;;;;;;;1.70;1.40;;;5.90;98.20;;;;;;4905168;29;20473;-79
2021/12/02 02:16:10;;;;;;;1.70;1.40;;;5.90;98.20;;;;;;4883698;29;20988;-78
2021/12/02 02:18:37;;;;;;;1.60;1.30;;;5.90;98.20;;;;;;4905719;29;20886;-81
2021/12/02 02:21:08;;;;;;;1.70;1.40;;;5.90;98.20;;;;;;4883790;29;20549;-78
2021/12/02 02:23:39;;;;;;;1.70;1.40;;;5.90;98.20;;;;;;4905186;29;20473;-78
2021/12/02 02:26:08;;;;;;;1.60;1.30;;;5.90;98.20;;;;;;4881496;29;20497;-79
2021/12/02 02:28:35;;;;;;;1.60;1.30;;;5.90;98.20;;;;;;4904722;29;20870;-81
2021/12/02 02:31:03;;;;;;;1.67;1.30;;;5.90;98.20;;;;;;4879754;28;20474;-79
2021/12/02 02:33:36;;;;;;;1.63;1.30;;;5.90;98.20;;;;;;4904531;29;20504;-80
2021/12/02 02:36:06;;;;;;;1.63;1.30;;;5.90;98.20;;;;;;4878456;29;20548;-82
2021/12/02 02:38:34;;;;;;;1.70;1.40;;;5.90;98.20;;;;;;4877461;29;21066;-80
2021/12/02 02:41:02;;;;;;;1.63;1.30;;;5.80;98.20;;;;;;4880582;29;20559;-80
2021/12/02 02:43:31;;;;;;;1.63;1.40;;;5.80;98.20;;;;;;4913222;29;20878;-79
2021/12/02 02:45:58;;;;;;;2.47;2.27;;;5.80;98.20;;;;;;4881501;29;20501;-80
2021/12/02 02:48:25;;;;;;;1.70;1.40;;;5.80;98.20;;;;;;4911791;29;20473;-81
2021/12/02 02:50:52;;;;;;;1.67;1.40;;;5.80;98.20;;;;;;4880758;29;20469;-87
2021/12/02 02:53:24;;;;;;;1.67;1.40;;;5.80;98.20;;;;;;4906994;29;20469;-78
2021/12/02 02:56:00;;;;;;;1.63;1.30;;;5.80;98.20;;;;;;4885332;29;20485;-82
2021/12/02 02:58:34;;;;;;;1.67;1.30;;;5.70;98.20;;;;;;4903059;29;20512;-80
2021/12/02 03:01:07;;;;;;;1.60;1.40;;;5.70;98.20;;;;;;4880202;29;20556;-80
2021/12/02 03:03:41;;;;;;;1.67;1.30;;;5.70;98.20;;;;;;4906733;29;20466;-84
2021/12/02 03:06:25;;;;;;;1.63;1.30;;;5.70;98.20;;;;;;4887305;29;20590;-83
2021/12/02 03:08:56;;;;;;;1.70;1.40;;;5.70;98.20;;;;;;4898512;29;20561;-85
2021/12/02 03:11:24;;;;;;;1.60;1.40;;;5.70;98.20;;;;;;4877469;29;20587;-83
2021/12/02 03:13:52;;;;;;;1.70;1.40;;;5.70;98.20;;;;;;4907448;29;20588;-79
2021/12/02 03:16:44;;;;;;;1.60;1.40;;;5.60;98.20;;;;;;4876993;28;20492;-82
2021/12/02 03:19:15;;;;;;;1.60;1.40;;;5.60;98.20;;;;;;4900400;29;20564;-82
2021/12/02 03:21:42;;;;;;;1.63;1.40;;;5.70;98.20;;;;;;4884248;29;20491;-80
2021/12/02 03:24:11;;;;;;;1.70;1.40;;;5.60;98.20;;;;;;4904643;29;20984;-79
2021/12/02 03:26:38;;;;;;;1.70;1.43;;;5.60;98.20;;;;;;4884709;28;20493;-81
2021/12/02 03:29:06;;;;;;;1.70;1.40;;;5.60;98.20;;;;;;4907155;29;20735;-79
2021/12/02 03:31:33;;;;;;;1.60;1.33;;;5.60;98.20;;;;;;4880548;29;20773;-80
2021/12/02 03:34:01;;;;;;;1.63;1.30;;;5.60;98.20;;;;;;4907418;29;20551;-85
2021/12/02 03:36:29;;;;;;;1.60;1.30;;;5.60;98.20;;;;;;4881685;29;21063;-80
2021/12/02 03:38:56;;;;;;;1.60;1.30;;;5.60;98.20;;;;;;4907432;29;20468;-80
2021/12/02 03:41:24;;;;;;;1.67;1.30;;;5.50;98.20;;;;;;4881418;29;21040;-82
2021/12/02 03:43:53;;;;;;;1.70;1.40;;;5.50;98.20;;;;;;4907990;29;20543;-80
2021/12/02 03:46:22;;;;;;;1.60;1.30;;;5.50;98.20;;;;;;4883775;29;20488;-86
2021/12/02 03:48:50;;;;;;;1.70;1.50;;;5.50;98.20;;;;;;4905448;29;20469;-80
2021/12/02 03:51:18;;;;;;;1.70;1.40;;;5.50;98.20;;;;;;4885537;29;20503;-81
2021/12/02 03:53:45;;;;;;;1.70;1.40;;;5.50;98.20;;;;;;4907813;29;20564;-80
2021/12/02 03:56:12;;;;;;;1.60;1.30;;;5.50;98.20;;;;;;4889006;29;20484;-79
2021/12/02 03:58:43;;;;;;;1.70;1.40;;;5.40;98.20;;;;;;4899842;29;20469;-79
2021/12/02 04:01:12;;;;;;;1.70;1.40;;;5.50;98.20;;;;;;4882988;29;21077;-83
2021/12/02 04:03:39;;;;;;;1.67;1.40;;;5.50;98.20;;;;;;4903596;29;20467;-80
2021/12/02 04:06:07;;;;;;;1.67;1.30;;;5.50;98.20;;;;;;4878998;29;23075;-78
2021/12/02 04:08:41;;;;;;;1.60;1.40;;;5.50;98.20;;;;;;4907742;29;20804;-81
2021/12/02 04:11:22;;;;;;;1.70;1.40;;;5.50;98.20;;;;;;4889170;29;20547;-80
2021/12/02 04:14:03;;;;;;;1.70;1.40;;;5.40;98.20;;;;;;4908401;29;20487;-79
2021/12/02 04:16:33;;;;;;;1.70;1.53;;;5.40;98.20;;;;;;4886413;29;20516;-82
2021/12/02 04:19:00;;;;;;;1.70;1.50;;;5.40;98.20;;;;;;4909335;29;20871;-81
2021/12/02 04:21:27;;;;;;;1.63;1.30;;;5.40;98.20;;;;;;4889882;29;20520;-79
2021/12/02 04:23:54;;;;;;;1.60;1.30;;;5.40;98.20;;;;;;4912798;29;20580;-80
2021/12/02 04:26:21;;;;;;;1.70;1.40;;;5.30;98.20;;;;;;4892700;28;21047;-79
2021/12/02 04:28:48;;;;;;;1.60;1.40;;;5.30;98.20;;;;;;4908597;29;20476;-80
2021/12/02 04:31:16;;;;;;;1.67;1.40;;;5.20;98.20;;;;;;4889380;29;20487;-82
2021/12/02 04:33:43;;;;;;;1.70;1.40;;;5.20;98.20;;;;;;4911839;29;20846;-80
2021/12/02 04:36:10;;;;;;;1.67;1.40;;;5.20;98.20;;;;;;4887976;29;21139;-79
2021/12/02 04:38:38;;;;;;;1.70;1.40;;;5.20;98.20;;;;;;4894964;29;20472;-86
2021/12/02 04:41:05;;;;;;;1.60;1.40;;;5.20;98.20;;;;;;4888162;29;21017;-86
2021/12/02 04:43:32;;;;;;;1.60;1.33;;;5.10;98.20;;;;;;4909309;29;20480;-84
2021/12/02 04:45:59;;;;;;;1.60;1.30;;;5.10;98.20;;;;;;4886049;29;20497;-82
2021/12/02 04:48:27;;;;;;;1.60;1.30;;;5.10;98.20;;;;;;4905389;29;20888;-83
2021/12/02 04:50:54;;;;;;;1.63;1.40;;;5.10;98.20;;;;;;4883443;29;20481;-81
2021/12/02 04:53:21;;;;;;;1.67;1.40;;;5.00;98.20;;;;;;4910988;29;20469;-81
2021/12/02 04:55:48;;;;;;;1.70;1.50;;;5.00;98.20;;;;;;4902257;29;20577;-82
2021/12/02 04:58:15;;;;;;;1.70;1.57;;;5.00;98.20;;;;;;4887369;29;20484;-82
2021/12/02 05:00:42;;;;;;;1.70;1.50;;;5.00;98.20;;;;;;4895783;29;20469;-79
2021/12/02 05:03:08;;;;;;;1.70;1.50;;;5.00;98.20;;;;;;4902777;29;20493;-82
2021/12/02 05:05:37;;;;;;;1.63;1.40;;;5.00;98.20;;;;;;4897193;29;20719;-81
2021/12/02 05:08:04;;;;;;;1.60;1.40;;;5.00;98.20;;;;;;4897050;29;20567;-82
2021/12/02 05:10:32;;;;;;;1.67;1.40;;;5.00;98.20;;;;;;4898479;29;20472;-84
2021/12/02 05:12:59;;;;;;;1.63;1.40;;;5.00;98.20;;;;;;4902763;29;21109;-82
2021/12/02 05:15:26;;;;;;;1.67;1.37;;;5.00;98.20;;;;;;4895200;29;20489;-82
2021/12/02 05:17:53;;;;;;;1.70;1.40;;;5.00;98.20;;;;;;4898111;29;20484;-80
2021/12/02 05:20:20;;;;;;;1.70;1.50;;;5.00;98.20;;;;;;4896157;29;20470;-83
2021/12/02 05:22:48;;;;;;;1.67;1.40;;;5.00;98.20;;;;;;4901725;29;20488;-89
2021/12/02 05:25:15;;;;;;;1.70;1.40;;;5.00;98.20;;;;;;4893992;29;20486;-82
2021/12/02 05:27:43;;;;;;;1.67;1.40;;;5.00;98.20;;;;;;4894602;29;20490;-83
2021/12/02 05:30:11;;;;;;;1.60;1.40;;;5.00;98.20;;;;;;4899529;29;20470;-81
2021/12/02 05:32:40;;;;;;;1.63;1.40;;;5.00;98.20;;;;;;4905249;29;21087;-82
2021/12/02 05:35:08;;;;;;;1.60;1.30;;;5.10;98.20;;;;;;4900662;29;20500;-82
2021/12/02 05:37:35;;;;;;;1.70;1.40;;;5.10;98.20;;;;;;4903300;29;20493;-83
2021/12/02 05:40:05;;;;;;;1.67;1.43;;;5.10;98.20;;;;;;4907037;29;20742;-82
2021/12/02 05:42:35;;;;;;;1.67;1.40;;;5.10;98.20;;;;;;4915979;28;20575;-82
2021/12/02 05:45:03;;;;;;;1.63;1.40;;;5.00;98.20;;;;;;4904136;29;20637;-79
2021/12/02 05:47:30;;;;;;;1.63;1.40;;;5.00;98.20;;;;;;4897797;29;20545;-79
2021/12/02 05:49:58;;;;;;;1.63;1.40;;;5.00;98.20;;;;;;4906400;29;20473;-87
2021/12/02 05:52:25;;;;;;;1.70;1.40;;;5.00;98.20;;;;;;4905725;29;20496;-81
2021/12/02 05:54:52;;;;;;;1.70;1.50;;;5.00;98.20;;;;;;4899826;29;20496;-84
2021/12/02 05:57:21;;;;;;;1.70;1.50;;;5.00;98.20;;;;;;4897125;29;20531;-81
2021/12/02 05:59:49;;;;;;;1.60;1.30;;;5.00;98.20;;;;;;4907853;29;20925;-82
2021/12/02 06:02:16;;;;;;;1.60;1.33;;;5.00;98.20;;;;;;4904450;28;20484;-81
2021/12/02 06:04:45;;;;;;;1.60;1.30;;;5.00;98.20;;;;;;4903473;29;20573;-84
2021/12/02 06:07:13;;;;;;;1.60;1.40;;;5.00;98.20;;;;;;4892634;29;20488;-81
2021/12/02 06:09:40;;;;;;;1.60;1.30;;;4.90;98.20;;;;;;4901529;29;20542;-79
2021/12/02 06:12:08;;;;;;;1.60;1.40;;;4.90;98.20;;;;;;4892676;29;20759;-81
2021/12/02 06:14:36;;;;;;;1.63;1.40;;;4.90;98.20;;;;;;4907587;29;20840;-81
2021/12/02 06:17:04;;;;;;;1.63;1.30;;;4.90;98.20;;;;;;4897566;29;20902;-81
2021/12/02 06:19:31;;;;;;;1.70;1.40;;;4.90;98.20;;;;;;4910944;29;20994;-80
2021/12/02 06:21:58;;;;;;;1.70;1.40;;;4.90;98.20;;;;;;4897298;29;21002;-83
2021/12/02 06:24:30;;;;;;;1.70;1.40;;;4.90;98.20;;;;;;4909172;29;20466;-84
2021/12/02 06:26:57;;;;;;;1.60;1.30;;;4.90;98.20;;;;;;4904996;29;20485;-82
2021/12/02 06:29:25;;;;;;;6.13;3.20;;;4.90;98.20;;;;;;4911910;29;20465;-84
2021/12/02 06:31:53;;;;;;;1.70;1.50;;;4.80;98.20;;;;;;4890667;29;20592;-88
2021/12/02 06:34:20;;;;;;;1.67;1.30;;;4.80;98.20;;;;;;4903273;29;20947;-79
2021/12/02 06:36:47;;;;;;;1.70;1.40;;;4.80;98.20;;;;;;4894122;29;20562;-82
2021/12/02 06:39:14;;;;;;;1.67;1.40;;;4.80;98.20;;;;;;4905584;29;20474;-85
2021/12/02 06:41:41;;;;;;;1.70;1.40;;;4.70;98.20;;;;;;4895106;29;20481;-83
2021/12/02 06:44:15;;;;;;;1.63;1.40;;;4.70;98.20;;;;;;4908268;29;20534;-84
2021/12/02 06:46:42;;;;;;;1.67;1.40;;;4.70;98.20;;;;;;4892271;29;20480;-79
2021/12/02 06:49:11;;;;;;;1.63;1.40;;;4.70;98.20;;;;;;4904961;29;20489;-80
2021/12/02 06:51:38;;;;;;;1.63;1.40;;;4.60;98.20;;;;;;4890051;29;20520;-83
2021/12/02 06:54:05;;;;;;;1.67;1.40;;;4.60;98.20;;;;;;4906918;29;20476;-87
2021/12/02 06:56:32;;;;;;;1.70;1.50;;;4.60;98.20;;;;;;4892581;28;20998;-78
2021/12/02 06:59:00;;;;;;;1.63;1.40;;;4.50;98.20;;;;;;4904055;29;20474;-81
2021/12/02 07:01:27;;;;;;;1.70;1.50;;;4.50;98.20;;;;;;4889154;29;21047;-83
2021/12/02 07:03:54;;;;;;;1.67;1.40;;;4.50;98.20;;;;;;4908741;29;20858;-79
2021/12/02 07:06:22;;;;;;;1.70;1.50;;;4.50;98.20;;;;;;4891100;29;20688;-84
2021/12/02 07:08:49;;;;;;;1.63;1.40;;;4.50;98.20;;;;;;4912035;29;20493;-82
2021/12/02 07:11:16;;;;;;;1.70;1.40;;;4.50;98.20;;;;;;4892457;29;20488;-82
2021/12/02 07:13:44;;;;;;;1.63;1.40;;;4.50;98.20;;;;;;4913162;29;20542;-83
2021/12/02 07:16:11;;;;;;;1.67;1.50;;;4.50;98.20;;;;;;4890716;29;21103;-83
2021/12/02 07:18:38;;;;;;;1.63;1.40;;;4.50;98.20;;;;;;4917993;29;21112;-83
2021/12/02 07:21:05;;;;;;;1.67;1.40;;;4.50;98.20;;;;;;4892629;29;20477;-84
2021/12/02 07:23:34;;;;;;;1.77;1.60;;;4.50;98.20;;;;;;4916850;29;20465;-86
2021/12/02 07:26:01;;;;;;;1.63;1.40;;;4.60;98.20;;;;;;4898620;29;20520;-81
2021/12/02 07:28:28;;;;;;;1.63;1.40;;;4.60;98.20;;;;;;4918778;29;20520;-81
2021/12/02 07:30:56;;;;;;;1.70;1.50;;;4.60;98.20;;;;;;4890006;29;20900;-80
2021/12/02 07:33:29;;;;;;;1.70;1.50;;;4.60;98.20;;;;;;4915667;29;20464;-82
2021/12/02 07:35:56;;;;;;;1.63;1.40;;;4.60;98.20;;;;;;4885493;29;20489;-81
2021/12/02 07:38:24;;;;;;;1.67;1.40;;;4.60;98.20;;;;;;4914417;29;20844;-82
2021/12/02 07:40:52;;;;;;;1.67;1.50;;;4.60;98.20;;;;;;4886165;29;20470;-80
2021/12/02 07:43:21;;;;;;;1.60;1.40;;;4.60;98.20;;;;;;4911554;29;20470;-79
2021/12/02 07:45:48;;;;;;;1.70;1.40;;;4.60;98.20;;;;;;4889799;29;20805;-80
2021/12/02 07:48:17;;;;;;;1.60;1.43;;;4.60;98.20;;;;;;4915245;29;21027;-77
2021/12/02 07:50:44;;;;;;;1.70;1.50;;;4.60;98.20;;;;;;4904604;29;20469;-80
2021/12/02 07:53:12;;;;;;;1.67;1.40;;;4.60;98.20;;;;;;4889578;29;20488;-80
2021/12/02 07:55:41;;;;;;;1.67;1.40;;;4.60;98.20;;;;;;4906420;29;20968;-81
2021/12/02 07:58:11;;;;;;;1.60;1.40;;;4.60;98.20;;;;;;4904652;28;20504;-80
2021/12/02 08:00:38;;;;;;;1.70;1.50;;;4.60;98.20;;;;;;4911042;29;20505;-83
2021/12/02 08:03:09;;;;;;;1.63;1.47;;;4.60;98.20;;;;;;4917652;29;21036;-81
2021/12/02 08:05:36;;;;;;;1.70;1.57;;;4.60;98.20;;;;;;4902912;29;20489;-81
2021/12/02 08:08:04;;;;;;;1.67;1.47;;;4.60;98.20;;;;;;4905758;29;20505;-83
2021/12/02 08:10:32;;;;;;;1.70;1.50;;;4.60;98.20;;;;;;4901607;29;20573;-82
2021/12/02 08:13:01;;;;;;;1.67;1.50;;;4.60;98.20;;;;;;4904629;29;20528;-83
2021/12/02 08:15:31;;;;;;;1.67;1.47;;;4.60;98.20;;;;;;4906840;29;20516;-81
2021/12/02 08:17:59;;;;;;;1.60;1.40;;;4.50;98.20;;;;;;4904866;29;20483;-83
2021/12/02 08:20:28;;;;;;;1.60;1.40;;;4.50;98.20;;;;;;4900015;29;20465;-81
2021/12/02 08:22:55;;;;;;;1.70;1.50;;;4.50;98.20;;;;;;4908978;29;20491;-82
2021/12/02 08:25:23;;;;;;;1.60;1.40;;;4.50;98.20;;;;;;4904286;29;20604;-81
2021/12/02 08:27:51;;;;;;;1.63;1.40;;;4.50;98.20;;;;;;4904327;29;20504;-82
2021/12/02 08:30:21;;;;;;;1.60;1.40;;;4.60;98.20;;;;;;4902965;29;20477;-83
2021/12/02 08:32:50;;;;;;;1.60;1.33;;;4.60;98.20;;;;;;4904056;29;20481;-80
2021/12/02 08:35:18;;;;;;;2.20;2.00;;;4.60;98.20;;;;;;4897770;29;20493;-79
2021/12/02 08:37:46;;;;;;;1.63;1.40;;;4.60;98.20;;;;;;4905789;29;20550;-80
2021/12/02 08:40:17;;;;;;;1.70;1.50;;;4.60;98.20;;;;;;4900129;29;20844;-77
2021/12/02 08:42:45;;;;;;;1.60;1.37;;;4.50;98.20;;;;;;4903956;29;20523;-82
2021/12/02 08:45:12;;;;;;;1.63;1.40;;;4.50;98.20;;;;;;4898557;29;20588;-81
2021/12/02 08:47:44;;;;;;;1.70;1.40;;;4.50;98.20;;;;;;4902835;29;20963;-79
2021/12/02 08:50:13;;;;;;;1.67;1.40;;;4.50;98.20;;;;;;4901488;29;20477;-79
2021/12/02 08:52:40;;;;;;;1.70;1.50;;;4.50;98.20;;;;;;4903622;29;20484;-78
2021/12/02 08:55:08;;;;;;;1.67;1.50;;;4.50;98.20;;;;;;4906491;29;20792;-82
2021/12/02 08:57:37;;;;;;;1.70;1.40;;;4.50;98.20;;;;;;4904629;28;20544;-81
2021/12/02 09:00:06;;;;;;;1.60;1.40;;;4.50;98.20;;;;;;4903854;29;20547;-79
2021/12/02 09:02:34;;;;;;;1.70;1.40;;;4.50;98.20;;;;;;4897106;28;20481;-80
2021/12/02 09:05:01;;;;;;;1.60;1.30;;;4.60;98.20;;;;;;4900843;29;20861;-79
2021/12/02 09:07:29;;;;;;;1.67;1.40;;;4.60;98.20;;;;;;4900956;29;20588;-78
2021/12/02 09:09:56;;;;;;;1.70;1.47;;;4.60;98.20;;;;;;4903853;29;20489;-81
2021/12/02 09:12:24;;;;;;;1.67;1.40;;;4.70;98.20;;;;;;4899069;29;20504;-81
2021/12/02 09:14:51;;;;;;;1.63;1.40;;;4.70;98.20;;;;;;4904951;29;20491;-80
2021/12/02 09:17:18;;;;;;;1.70;1.40;;;4.80;98.20;;;;;;4896216;29;20863;-76
2021/12/02 09:19:46;;;;;;;1.67;1.40;;;4.80;98.20;;;;;;4904598;29;20482;-80
2021/12/02 09:22:13;;;;;;;1.70;1.40;;;4.80;98.20;;;;;;4899294;29;20494;-80
2021/12/02 09:24:42;;;;;;;1.60;1.30;;;4.80;98.20;;;;;;4905270;29;20898;-80
2021/12/02 09:27:10;;;;;;;1.70;1.40;;;4.80;98.20;;;;;;4894312;29;20493;-80
2021/12/02 09:29:37;;;;;;;1.70;1.50;;;4.80;98.20;;;;;;4888798;29;20505;-81
2021/12/02 09:32:05;;;;;;;1.70;1.50;;;4.80;98.20;;;;;;4894168;29;20510;-80
2021/12/02 09:34:32;;;;;;;1.70;1.40;;;4.70;98.20;;;;;;4898672;29;20533;-80
2021/12/02 09:36:59;;;;;;;1.60;1.30;;;4.80;98.20;;;;;;4889034;29;20493;-80
2021/12/02 09:39:29;;;;;;;1.67;1.40;;;4.80;98.20;;;;;;4901038;29;20541;-80
2021/12/02 09:41:58;;;;;;;1.67;1.40;;;4.90;98.20;;;;;;4887714;29;21027;-80
2021/12/02 09:44:26;;;;;;;1.70;1.50;;;4.90;98.20;;;;;;4898682;29;20993;-83
2021/12/02 09:46:54;;;;;;;1.63;1.40;;;4.90;98.20;;;;;;4885482;29;21082;-80
2021/12/02 09:49:21;;;;;;;1.70;1.40;;;4.90;98.20;;;;;;4900195;29;20496;-79
2021/12/02 09:51:59;;;;;;;2.30;2.10;;;4.90;98.20;;;;;;4886951;29;20585;-81
2021/12/02 09:54:32;;;;;;;1.67;1.40;;;4.90;98.20;;;;;;4895085;29;20485;-81
2021/12/02 09:57:01;;;;;;;1.70;1.40;;;4.90;98.20;;;;;;4896436;29;20499;-82
2021/12/02 09:59:34;;;;;;;1.60;1.40;;;4.80;98.20;;;;;;4906275;29;20468;-81
2021/12/02 10:02:05;;;;;;;1.67;1.43;;;4.90;98.20;;;;;;4894450;29;20503;-85
2021/12/02 10:04:35;;;;;;;1.63;1.40;;;4.90;98.20;;;;;;4904518;29;20548;-82
2021/12/02 10:07:11;;;;;;;1.70;1.50;;;4.90;98.20;;;;;;4887066;29;20902;-89
2021/12/02 10:09:42;;;;;;;1.63;1.40;;;4.90;98.20;;;;;;4900931;29;21081;-80
2021/12/02 10:12:16;;;;;;;1.63;1.40;;;4.90;98.20;;;;;;4887161;29;20489;-82
2021/12/02 10:14:51;;;;;;;1.60;1.40;;;4.90;98.20;;;;;;4899623;29;20864;-85
2021/12/02 10:17:22;;;;;;;1.70;1.50;;;4.90;98.20;;;;;;4891580;29;20615;-80
2021/12/02 10:20:12;;;;;;;1.67;1.40;;;4.90;98.20;;;;;;4894832;29;20462;-82
2021/12/02 10:22:41;;;;;;;1.67;1.40;;;5.00;98.20;;;;;;4895022;29;20566;-83
2021/12/02 10:25:09;;;;;;;1.63;1.40;;;5.10;98.20;;;;;;4894876;29;20495;-83
2021/12/02 10:27:52;;;;;;;1.60;1.40;;;5.20;98.20;;;;;;4900064;29;20490;-81
2021/12/02 10:30:24;;;;;;;1.60;1.30;;;5.30;98.20;;;;;;4898843;29;20573;-84
2021/12/02 10:32:52;;;;;;;1.60;1.37;;;5.50;98.20;;;;;;4905895;29;20483;-84
2021/12/02 10:35:21;;;;;;;1.70;1.50;;;5.60;98.20;;;;;;4901464;29;21243;-84
2021/12/02 10:37:48;;;;;;;1.63;1.30;;;5.60;98.20;;;;;;4903663;29;20904;-81
2021/12/02 10:40:22;;;;;;;1.63;1.30;;;5.60;98.20;;;;;;4896102;29;20507;-82
2021/12/02 10:42:51;;;;;;;1.60;1.30;;;5.60;98.20;;;;;;4897677;28;20496;-81
2021/12/02 10:45:22;;;;;;;1.70;1.30;;;5.60;98.20;;;;;;4902150;29;20528;-82
2021/12/02 10:47:50;;;;;;;1.60;1.33;;;5.60;98.20;;;;;;4908908;29;20516;-84
2021/12/02 10:50:19;;;;;;;1.70;1.50;;;5.60;98.20;;;;;;4899160;29;20493;-85
2021/12/02 10:52:46;;;;;;;1.63;1.40;;;5.60;98.20;;;;;;4902482;29;21278;-83
2021/12/02 10:55:16;;;;;;;1.60;1.30;;;5.50;98.20;;;;;;4898429;29;20496;-81
2021/12/02 10:57:46;;;;;;;1.70;1.50;;;5.50;98.20;;;;;;4894449;29;20529;-82
2021/12/02 11:00:17;;;;;;;1.60;1.30;;;5.50;98.20;;;;;;4903710;29;20473;-82
2021/12/02 11:02:48;;;;;;;1.60;1.30;;;5.60;98.20;;;;;;4902526;29;20496;-82
2021/12/02 11:05:20;;;;;;;1.60;1.40;;;5.70;98.20;;;;;;4904277;29;20547;-85
2021/12/02 11:07:53;;;;;;;1.60;1.30;;;5.80;98.20;;;;;;4914718;29;20515;-84
2021/12/02 11:10:20;;;;;;;1.60;1.30;;;5.90;98.20;;;;;;4897939;29;20943;-82
2021/12/02 11:12:49;;;;;;;1.70;1.40;;;6.00;98.20;;;;;;4899427;29;20501;-83
2021/12/02 11:15:23;;;;;;;1.60;1.30;;;6.10;98.20;;;;;;4894535;29;20576;-83
2021/12/02 11:17:57;;;;;;;1.63;1.30;;;6.10;98.20;;;;;;4901912;29;20492;-84
2021/12/02 11:20:25;;;;;;;1.63;1.30;;;6.00;98.20;;;;;;4896362;29;20469;-84
2021/12/02 11:22:56;;;;;;;1.60;1.30;;;6.00;98.20;;;;;;4907616;29;20556;-86
2021/12/02 11:25:25;;;;;;;1.63;1.30;;;6.00;98.20;;;;;;4899092;29;20494;-85
2021/12/02 11:27:53;;;;;;;1.60;1.30;;;5.90;98.20;;;;;;4906890;29;20558;-84
2021/12/02 11:30:24;;;;;;;1.67;1.30;;;5.90;98.20;;;;;;4900324;29;20493;-84
2021/12/02 11:32:57;;;;;;;1.60;1.23;;;5.80;98.20;;;;;;4902230;29;20893;-83
2021/12/02 11:35:32;;;;;;;1.60;1.30;;;5.70;98.20;;;;;;4901776;29;20602;-85
2021/12/02 11:38:03;;;;;;;1.70;1.40;;;5.70;98.20;;;;;;4903260;28;20491;-84
2021/12/02 11:40:33;;;;;;;1.63;1.30;;;5.60;98.20;;;;;;4903747;29;20843;-85
2021/12/02 11:43:00;;;;;;;1.60;1.30;;;5.60;98.20;;;;;;4902679;28;20800;-86
2021/12/02 11:45:32;;;;;;;1.60;1.30;;;5.50;98.20;;;;;;4904493;29;20493;-84
2021/12/02 11:48:00;;;;;;;1.60;1.30;;;5.40;98.20;;;;;;4900192;29;20508;-88
2021/12/02 11:50:30;;;;;;;1.60;1.40;;;5.40;98.20;;;;;;4903871;29;20497;-85
2021/12/02 11:52:58;;;;;;;1.63;1.40;;;5.30;98.20;;;;;;4900049;28;20503;-85
2021/12/02 11:55:28;;;;;;;1.60;1.37;;;5.20;98.20;;;;;;4902228;29;21114;-80
2021/12/02 11:57:55;;;;;;;1.60;1.30;;;5.20;98.20;;;;;;4901786;28;20480;-82
2021/12/02 12:00:25;;;;;;;1.60;1.33;;;5.20;98.20;;;;;;4899884;29;20787;-81
2021/12/02 12:03:02;;;;;;;1.60;1.30;;;5.20;98.20;;;;;;4908498;29;20748;-83
2021/12/02 12:05:32;;;;;;;1.60;1.30;;;5.20;98.20;;;;;;4895679;29;20484;-82
2021/12/02 12:08:01;;;;;;;1.70;1.57;;;5.30;98.20;;;;;;4904389;29;20554;-82
2021/12/02 12:10:34;;;;;;;1.67;1.30;;;5.40;98.20;;;;;;4897698;29;20882;-80
2021/12/02 12:13:17;;;;;;;1.67;1.33;;;5.50;98.20;;;;;;4902788;29;20483;-80
2021/12/02 12:15:47;;;;;;;1.60;1.40;;;5.50;98.20;;;;;;4894604;29;20497;-81
2021/12/02 12:18:36;;;;;;;1.67;1.40;;;5.60;98.20;;;;;;4888781;29;20853;-81
2021/12/02 12:21:07;;;;;;;1.70;1.40;;;5.50;98.20;;;;;;4882756;29;20502;-83
2021/12/02 12:23:40;;;;;;;1.60;1.30;;;5.50;98.20;;;;;;4911476;29;20477;-80
2021/12/02 12:26:24;;;;;;;1.60;1.40;;;5.50;98.20;;;;;;4892924;28;20892;-83
2021/12/02 12:29:31;;;;;;;1.63;1.33;;;5.50;98.20;;;;;;4912690;29;20589;-82
2021/12/02 12:32:26;;;;;;;1.70;1.40;;;5.60;98.20;;;;;;4895405;29;20483;-82
2021/12/02 12:35:02;;;;;;;1.63;1.30;;;5.50;98.20;;;;;;4897061;29;20795;-82
2021/12/02 12:37:54;;;;;;;1.60;1.30;;;5.50;98.20;;;;;;4893486;29;20837;-83
2021/12/02 12:40:25;;;;;;;1.60;1.20;;;5.50;98.20;;;;;;4893136;29;20470;-83
2021/12/02 12:43:32;;;;;;;1.60;1.30;;;5.50;98.20;;;;;;4903420;29;20495;-87
2021/12/02 12:46:14;;;;;;;1.60;1.40;;;5.50;98.20;;;;;;4884555;29;20532;-81
2021/12/02 12:48:42;;;;;;;1.63;1.40;;;5.50;98.20;;;;;;4902174;29;20466;-85
2021/12/02 12:51:15;;;;;;;1.60;1.30;;;5.50;98.20;;;;;;4887147;29;20496;-81
2021/12/02 12:53:44;;;;;;;1.60;1.30;;;5.60;98.20;;;;;;4900876;29;20474;-82
2021/12/02 12:56:14;;;;;;;1.63;1.40;;;5.60;98.20;;;;;;4892567;28;20648;-83
2021/12/02 12:59:01;;;;;;;1.60;1.30;;;5.70;98.20;;;;;;4903678;29;20474;-85
2021/12/02 13:01:29;;;;;;;1.63;1.40;;;5.70;98.20;;;;;;4888348;29;21115;-81
2021/12/02 13:04:13;;;;;;;1.60;1.30;;;5.80;98.20;;;;;;4910503;29;20458;-86
2021/12/02 13:06:54;;;;;;;1.60;1.30;;;5.80;98.20;;;;;;4884525;29;20492;-82
2021/12/02 13:09:42;;;;;;;1.67;1.30;;;5.80;98.20;;;;;;4906088;29;20497;-80
2021/12/02 13:12:12;;;;;;;1.90;1.70;;;5.70;98.20;;;;;;4896871;29;20523;-80
2021/12/02 13:14:41;;;;;;;1.60;1.30;;;5.60;98.20;;;;;;4899001;29;20469;-82